Time;durP1;ratioP1;P1;durP2;ratioP2;P2;SDS_P1;SDS_P2;PMS_P1;PMS_P2;Temp;Humidity;BMP_temperature;BMP_pressure;BME280_temperature;BME280_humidity;BME280_pressure;Samples;Min_cycle;Max_cycle;Signal;HPM_P1;HPM_P2
2021/08/27 00:01:56;;;;;;;7.80;3.65;;;;;;;18.08;100.00;98423.56;4570535;78;28521;-79
2021/08/27 00:07:58;;;;;;;9.13;3.95;;;;;;;18.00;100.00;98425.55;4571129;78;28495;-78
2021/08/27 00:13:59;;;;;;;6.97;3.62;;;;;;;18.32;100.00;98419.91;4571306;76;28474;-78
2021/08/27 00:20:01;;;;;;;6.62;3.47;;;;;;;18.36;100.00;98406.52;4575299;78;28532;-79
2021/08/27 00:26:02;;;;;;;7.28;4.42;;;;;;;18.51;100.00;98422.56;4575185;76;28529;-78
2021/08/27 00:32:04;;;;;;;8.45;4.80;;;;;;;18.45;100.00;98429.77;4575455;77;28525;-78
2021/08/27 00:38:06;;;;;;;10.05;4.30;;;;;;;18.33;100.00;98431.05;4572527;78;28506;-78
2021/08/27 00:44:08;;;;;;;8.75;4.35;;;;;;;18.34;100.00;98430.50;4556015;78;28463;-78
2021/08/27 00:50:10;;;;;;;8.55;3.83;;;;;;;18.24;100.00;98432.28;4538097;78;28485;-79
2021/08/27 00:56:13;;;;;;;10.43;4.53;;;;;;;18.19;100.00;98428.84;4540385;78;28571;-79
2021/08/27 01:02:15;;;;;;;7.03;3.52;;;;;;;18.39;100.00;98429.86;4537836;78;28473;-79
2021/08/27 01:08:41;;;;;;;7.17;3.95;;;;;;;18.14;100.00;98430.27;4544520;78;28510;-80
2021/08/27 01:14:52;;;;;;;;;;;;;;;18.65;100.00;98428.05;4545731;78;28493;-79
2021/08/27 01:21:34;;;;;;;8.28;4.80;;;;;;;18.73;100.00;98423.81;4540844;78;20166;-79
2021/08/27 01:27:37;;;;;;;6.65;3.85;;;;;;;18.85;100.00;98420.61;4540910;76;28493;-78
2021/08/27 01:33:59;;;;;;;7.40;3.72;;;;;;;19.12;100.00;98426.41;4553545;78;28481;-78
2021/08/27 01:40:01;;;;;;;7.10;3.75;;;;;;;19.12;100.00;98419.05;4553968;78;28477;-78
2021/08/27 01:46:04;;;;;;;9.98;4.80;;;;;;;19.11;100.00;98407.91;4553677;77;28503;-78
2021/08/27 01:52:08;;;;;;;7.53;4.40;;;;;;;19.22;100.00;98413.39;4553670;78;28470;-78
2021/08/27 01:58:10;;;;;;;8.38;3.58;;;;;;;18.92;100.00;98421.57;4553826;78;28481;-78
2021/08/27 02:04:15;;;;;;;7.55;3.67;;;;;;;19.21;100.00;98427.31;4553870;78;28491;-78
2021/08/27 02:10:17;;;;;;;7.30;3.80;;;;;;;19.15;100.00;98437.51;4487719;77;28462;-79
2021/08/27 02:16:19;;;;;;;8.40;4.22;;;;;;;19.44;99.60;98436.38;4518032;78;42346;-79
2021/08/27 02:22:23;;;;;;;6.65;3.90;;;;;;;19.19;100.00;98439.87;4533028;77;28535;-79
2021/08/27 02:28:26;;;;;;;6.45;3.75;;;;;;;19.14;100.00;98443.25;4566716;76;28535;-79
2021/08/27 02:34:30;;;;;;;6.95;3.62;;;;;;;19.18;100.00;98449.16;4568549;77;28470;-78
2021/08/27 02:40:32;;;;;;;10.13;4.42;;;;;;;19.33;100.00;98458.16;4593180;77;28582;-79
2021/08/27 02:46:34;;;;;;;9.23;4.37;;;;;;;19.45;100.00;98446.17;4532258;77;28470;-79
2021/08/27 02:52:53;;;;;;;7.83;4.10;;;;;;;19.48;99.81;98455.09;4523029;79;28451;-78
2021/08/27 02:58:57;;;;;;;6.72;3.62;;;;;;;19.36;100.00;98453.45;4527507;77;28445;-78
2021/08/27 03:05:07;;;;;;;6.85;4.40;;;;;;;19.55;100.00;98458.77;4566828;77;28465;-78
2021/08/27 03:11:16;;;;;;;7.33;4.37;;;;;;;19.48;100.00;98467.94;4569081;77;28463;-77
2021/08/27 03:17:21;;;;;;;8.08;4.53;;;;;;;19.58;99.28;98477.81;4538023;77;28540;-78
2021/08/27 03:23:24;;;;;;;7.15;3.92;;;;;;;19.41;100.00;98471.05;4568784;78;28476;-78
2021/08/27 03:29:30;;;;;;;6.45;3.95;;;;;;;19.42;100.00;98474.05;4565496;78;28506;-78
2021/08/27 03:35:32;;;;;;;6.97;4.08;;;;;;;19.36;100.00;98476.05;4572886;78;28548;-77
2021/08/27 03:41:39;;;;;;;5.58;3.72;;;;;;;19.47;100.00;98476.66;4587221;78;28476;-78
2021/08/27 03:47:43;;;;;;;6.80;3.55;;;;;;;19.53;100.00;98470.54;4587894;77;28469;-76
2021/08/27 03:53:45;;;;;;;7.05;4.03;;;;;;;19.46;100.00;98491.94;4587563;78;28514;-76
2021/08/27 03:59:47;;;;;;;8.78;3.92;;;;;;;19.42;100.00;98482.23;4536725;78;28495;-77
2021/08/27 04:06:02;;;;;;;7.33;4.05;;;;;;;19.37;100.00;98480.95;4556584;78;28507;-77
2021/08/27 04:12:06;;;;;;;7.00;3.50;;;;;;;19.36;100.00;98476.61;4562673;77;28498;-76
2021/08/27 04:18:07;;;;;;;6.65;3.77;;;;;;;19.21;100.00;98485.89;4562686;78;28487;-78
2021/08/27 04:24:11;;;;;;;5.35;3.67;;;;;;;19.29;100.00;98476.20;4561466;76;28524;-78
2021/08/27 04:30:12;;;;;;;7.83;4.15;;;;;;;19.39;100.00;98484.17;4505498;77;28576;-76
2021/08/27 04:36:14;;;;;;;8.13;3.67;;;;;;;19.46;99.45;98500.13;4539528;77;28459;-77
2021/08/27 04:42:16;;;;;;;7.28;3.45;;;;;;;19.32;100.00;98500.14;4488050;77;28526;-77
2021/08/27 04:48:17;;;;;;;6.85;3.70;;;;;;;19.65;97.77;98504.91;4525415;78;28453;-77
2021/08/27 04:54:19;;;;;;;6.05;3.80;;;;;;;19.44;100.00;98505.89;4568725;78;28567;-76
2021/08/27 05:00:20;;;;;;;8.13;3.90;;;;;;;19.65;98.39;98515.02;4568933;78;28481;-77
2021/08/27 05:06:21;;;;;;;6.45;3.67;;;;;;;19.61;98.94;98523.00;4545596;76;28476;-76
2021/08/27 05:12:23;;;;;;;6.60;3.80;;;;;;;19.83;96.57;98517.91;4568822;78;28480;-77
2021/08/27 05:18:26;;;;;;;5.95;3.92;;;;;;;19.81;95.88;98522.33;4568797;77;28506;-77
2021/08/27 05:24:27;;;;;;;6.78;3.52;;;;;;;19.85;95.73;98519.80;4569063;78;28449;-77
2021/08/27 05:30:28;;;;;;;8.28;4.65;;;;;;;20.05;95.09;98507.66;4559825;78;28568;-77
2021/08/27 05:36:30;;;;;;;9.95;5.45;;;;;;;20.09;95.79;98511.94;4549151;77;28491;-76
2021/08/27 05:42:31;;;;;;;11.10;6.15;;;;;;;20.26;94.08;98505.28;4563559;77;28477;-76
2021/08/27 05:48:33;;;;;;;13.10;7.00;;;;;;;20.32;92.56;98499.92;4561764;77;28516;-77
2021/08/27 05:54:34;;;;;;;16.17;7.83;;;;;;;19.98;95.83;98508.62;4535025;77;28507;-77
2021/08/27 06:00:35;;;;;;;12.40;7.20;;;;;;;19.58;97.16;98529.61;4481808;76;28458;-76
2021/08/27 06:06:37;;;;;;;14.70;7.83;;;;;;;18.92;100.00;98522.34;4561967;77;28512;-77
2021/08/27 06:12:40;;;;;;;15.95;8.03;;;;;;;19.02;100.00;98518.68;4549839;77;28508;-81
2021/08/27 06:18:41;;;;;;;14.95;8.20;;;;;;;19.19;100.00;98522.18;4550198;77;28507;-77
2021/08/27 06:24:43;;;;;;;16.07;9.00;;;;;;;19.58;100.00;98529.06;4534193;77;28497;-80
2021/08/27 06:30:44;;;;;;;16.37;9.20;;;;;;;19.81;100.00;98537.87;4528420;76;28509;-79
2021/08/27 06:36:47;;;;;;;13.75;8.20;;;;;;;20.01;99.14;98533.38;4480404;78;28891;-77
2021/08/27 06:42:49;;;;;;;15.72;8.05;;;;;;;20.22;95.68;98541.11;4527418;77;28459;-81
2021/08/27 06:48:50;;;;;;;13.10;7.62;;;;;;;20.37;92.42;98544.62;4560891;78;28473;-81
2021/08/27 06:54:52;;;;;;;14.70;8.55;;;;;;;20.83;89.20;98549.56;4512948;77;28511;-82
2021/08/27 07:00:53;;;;;;;13.90;7.83;;;;;;;21.08;87.20;98546.71;4497762;77;28543;-80
2021/08/27 07:06:56;;;;;;;13.43;7.50;;;;;;;21.18;87.81;98550.55;4539096;78;28471;-78
2021/08/27 07:12:58;;;;;;;14.93;8.48;;;;;;;21.15;87.24;98553.91;4561835;77;28445;-79
2021/08/27 07:18:59;;;;;;;14.68;8.63;;;;;;;20.97;86.63;98557.66;4553938;77;28488;-79
2021/08/27 07:25:01;;;;;;;12.90;7.72;;;;;;;20.91;88.15;98558.93;4531841;77;28444;-79
2021/08/27 07:31:02;;;;;;;13.68;8.05;;;;;;;21.20;85.66;98550.24;4488467;78;28511;-78
2021/08/27 07:37:04;;;;;;;14.00;7.67;;;;;;;21.54;81.31;98546.61;4495248;78;28437;-79
2021/08/27 07:43:05;;;;;;;12.58;7.53;;;;;;;21.67;79.84;98548.45;4492539;79;28464;-80
2021/08/27 07:49:06;;;;;;;10.03;5.92;;;;;;;22.11;78.02;98548.55;4492793;78;28458;-79
2021/08/27 07:55:09;;;;;;;10.10;5.80;;;;;;;22.23;69.03;98549.30;4491533;79;28485;-78
2021/08/27 08:01:10;;;;;;;10.30;6.55;;;;;;;22.44;66.18;98548.66;4489607;79;28522;-78
2021/08/27 08:07:11;;;;;;;7.87;5.08;;;;;;;22.68;69.08;98550.91;4494265;78;28484;-78
2021/08/27 08:13:13;;;;;;;7.40;4.10;;;;;;;22.86;71.27;98557.73;4491528;78;28706;-77
2021/08/27 08:19:14;;;;;;;7.62;4.17;;;;;;;22.83;66.51;98559.77;4493945;77;28513;-77
2021/08/27 08:25:16;;;;;;;7.17;4.33;;;;;;;21.56;76.96;98577.18;4513744;77;28867;-78
2021/08/27 08:31:20;;;;;;;4.45;3.42;;;;;;;21.19;78.41;98574.59;4549676;77;28444;-77
2021/08/27 08:37:21;;;;;;;6.12;4.05;;;;;;;21.51;74.20;98579.49;4542405;76;28442;-78
2021/08/27 08:43:23;;;;;;;6.78;4.05;;;;;;;21.38;75.32;98572.20;4535283;76;28498;-78
2021/08/27 08:49:29;;;;;;;8.95;5.70;;;;;;;21.40;75.06;98566.67;4511906;77;28484;-78
2021/08/27 08:55:31;;;;;;;5.37;4.12;;;;;;;21.22;78.97;98573.96;4576009;76;28464;-77
2021/08/27 09:01:33;;;;;;;6.12;4.22;;;;;;;21.56;76.41;98575.27;4498483;77;28530;-78
2021/08/27 09:07:34;;;;;;;8.23;6.17;;;;;;;21.79;73.58;98575.20;4540296;76;28483;-77
2021/08/27 09:13:36;;;;;;;5.65;4.92;;;;;;;21.29;75.99;98578.43;4585924;76;28435;-76
2021/08/27 09:19:52;;;;;;;8.13;5.05;;;;;;;22.24;70.99;98576.09;4549355;77;28446;-78
2021/08/27 09:25:54;;;;;;;8.08;6.10;;;;;;;22.21;70.99;98584.37;4542907;76;28461;-77
2021/08/27 09:31:55;;;;;;;8.18;4.92;;;;;;;22.43;69.01;98592.20;4543640;77;28449;-77
2021/08/27 09:37:56;;;;;;;7.47;5.33;;;;;;;22.51;69.52;98587.91;4507598;76;28484;-78
2021/08/27 09:43:57;;;;;;;7.00;4.65;;;;;;;22.27;71.45;98589.13;4552429;76;28447;-83
2021/08/27 09:50:22;;;;;;;7.60;4.72;;;;;;;22.19;71.89;98591.31;4435461;77;28539;-77
2021/08/27 09:56:27;;;;;;;6.05;3.60;;;;;;;22.18;71.85;98593.23;4430919;79;28567;-80
2021/08/27 10:02:31;;;;;;;5.03;3.02;;;;;;;22.47;70.91;98596.48;4375578;80;28460;-76
2021/08/27 10:08:35;;;;;;;3.95;2.58;;;;;;;22.67;66.75;98595.08;4407086;78;28448;-76
2021/08/27 10:14:36;;;;;;;2.55;2.05;;;;;;;22.74;60.81;98595.95;4425005;78;28554;-76
2021/08/27 10:20:41;;;;;;;2.72;1.75;;;;;;;22.55;62.20;98601.20;4403526;79;28494;-76
2021/08/27 10:26:43;;;;;;;3.65;2.60;;;;;;;22.50;62.66;98600.79;4436625;78;28468;-78
2021/08/27 10:32:47;;;;;;;3.20;2.15;;;;;;;22.36;64.55;98601.48;4409677;79;28531;-77
2021/08/27 10:38:54;;;;;;;4.70;2.85;;;;;;;22.58;64.23;98599.17;4529817;77;28500;-79
2021/08/27 10:44:55;;;;;;;5.72;3.12;;;;;;;22.56;65.81;98604.99;4513495;76;28529;-80
2021/08/27 10:50:59;;;;;;;4.55;3.37;;;;;;;22.62;68.15;98601.53;4548731;77;28461;-80
2021/08/27 10:57:00;;;;;;;5.42;4.10;;;;;;;22.91;66.14;98600.61;4415523;77;28519;-81
2021/08/27 11:03:03;;;;;;;6.05;4.45;;;;;;;23.07;66.01;98598.98;4522729;76;28530;-80
2021/08/27 11:09:20;;;;;;;7.67;4.70;;;;;;;22.94;68.70;98597.22;4517825;76;28476;-78
2021/08/27 11:15:31;;;;;;;7.72;4.67;;;;;;;22.73;70.11;98600.63;4528710;76;28541;-78
2021/08/27 11:21:37;;;;;;;7.22;4.45;;;;;;;22.41;72.61;98597.20;4548588;76;28455;-77
2021/08/27 11:27:55;;;;;;;7.95;5.42;;;;;;;22.52;71.47;98599.11;4522238;77;28546;-79
2021/08/27 11:34:00;;;;;;;8.40;5.58;;;;;;;22.40;73.10;98598.33;4496606;77;28528;-78
2021/08/27 11:40:06;;;;;;;7.83;5.53;;;;;;;22.34;73.70;98599.64;4525771;76;28520;-78
2021/08/27 11:46:27;;;;;;;7.43;4.87;;;;;;;21.33;78.52;98601.03;4509277;77;28591;-77
2021/08/27 11:52:30;;;;;;;11.38;5.55;;;;;;;21.84;73.51;98602.41;4508928;77;32358;-81
2021/08/27 11:58:43;;;;;;;5.87;5.05;;;;;;;21.70;75.55;98603.09;4503614;76;28496;-81
2021/08/27 12:04:46;;;;;;;8.28;5.37;;;;;;;21.99;72.27;98602.53;4503056;76;28468;-80
2021/08/27 12:10:48;;;;;;;7.22;5.35;;;;;;;21.89;72.04;98609.67;4507324;77;28510;-77
2021/08/27 12:16:49;;;;;;;6.55;4.70;;;;;;;21.45;73.54;98601.25;4517142;77;28452;-79
2021/08/27 12:22:59;;;;;;;6.97;5.33;;;;;;;21.83;72.06;98610.95;4503068;78;28501;-78
2021/08/27 12:28:55;;;;;;;5.58;4.67;;;;;;;21.41;74.17;98605.74;4484112;78;28464;-78
2021/08/27 12:34:59;;;;;;;7.25;5.15;;;;;;;21.70;70.97;98607.20;4474347;77;28470;-77
2021/08/27 12:41:17;;;;;;;8.80;4.58;;;;;;;21.90;77.63;98615.96;4450576;78;28502;-81
2021/08/27 12:47:35;;;;;;;6.75;4.80;;;;;;;21.57;85.37;98618.45;4523535;77;28433;-81
2021/08/27 12:53:41;;;;;;;9.13;5.28;;;;;;;21.34;89.66;98627.25;4484729;77;28864;-82
2021/08/27 12:59:59;;;;;;;9.93;5.80;;;;;;;21.25;90.98;98636.23;4494029;78;28523;-82
2021/08/27 13:06:00;;;;;;;7.97;5.28;;;;;;;21.21;95.95;98627.02;4519259;77;28448;-82
2021/08/27 13:12:02;;;;;;;6.20;4.37;;;;;;;22.34;83.86;98626.44;4473772;77;28511;-82
2021/08/27 13:18:06;;;;;;;6.30;4.00;;;;;;;22.47;78.03;98629.34;4497447;77;28449;-82
2021/08/27 13:24:13;;;;;;;5.92;4.10;;;;;;;22.50;77.87;98630.92;4500508;77;28455;-82
2021/08/27 13:30:16;;;;;;;5.55;3.05;;;;;;;22.63;77.43;98628.34;4486275;77;28561;-82
2021/08/27 13:36:17;;;;;;;4.75;3.58;;;;;;;22.86;69.62;98630.91;4498735;77;28556;-81
2021/08/27 13:42:18;;;;;;;5.40;3.72;;;;;;;22.86;70.42;98628.17;4512746;77;28541;-80
2021/08/27 13:48:20;;;;;;;6.65;4.00;;;;;;;23.10;68.56;98628.48;4485815;77;28503;-82
2021/08/27 13:54:21;;;;;;;8.38;5.22;;;;;;;23.50;70.63;98629.40;4486085;78;28479;-82
2021/08/27 14:00:23;;;;;;;8.53;6.20;;;;;;;23.34;74.47;98629.13;4498194;76;28479;-83
2021/08/27 14:06:25;;;;;;;9.23;6.45;;;;;;;23.29;78.71;98636.14;4496450;77;28431;-80
2021/08/27 14:12:26;;;;;;;8.60;5.70;;;;;;;23.47;75.73;98640.45;4474768;78;28464;-80
2021/08/27 14:18:28;;;;;;;9.35;5.45;;;;;;;23.25;76.13;98638.14;4517091;77;28474;-83
2021/08/27 14:24:29;;;;;;;9.35;5.78;;;;;;;23.61;74.46;98645.73;4556834;76;28474;-80
2021/08/27 14:30:31;;;;;;;7.28;5.45;;;;;;;23.55;75.13;98642.92;4491330;77;28490;-80
2021/08/27 14:36:32;;;;;;;9.85;5.60;;;;;;;23.44;74.88;98651.27;4503706;78;28482;-80
2021/08/27 14:42:34;;;;;;;6.87;5.45;;;;;;;23.39;76.29;98648.13;4529164;78;28453;-80
2021/08/27 14:48:38;;;;;;;7.12;5.25;;;;;;;23.29;77.37;98647.11;4512579;77;28452;-79
2021/08/27 14:54:40;;;;;;;6.60;5.05;;;;;;;22.94;78.41;98650.11;4511998;77;28463;-83
2021/08/27 15:00:46;;;;;;;7.30;4.42;;;;;;;22.09;86.98;98654.00;4493280;77;28544;-80
2021/08/27 15:06:48;;;;;;;6.37;3.83;;;;;;;21.57;93.17;98654.83;4531342;76;28459;-81
2021/08/27 15:12:49;;;;;;;5.42;4.05;;;;;;;21.96;86.42;98659.28;4513799;76;28510;-81
2021/08/27 15:18:51;;;;;;;6.53;4.28;;;;;;;21.57;91.82;98656.73;4516836;76;28497;-81
2021/08/27 15:24:52;;;;;;;7.33;4.12;;;;;;;21.68;92.61;98657.32;4533623;76;28475;-80
2021/08/27 15:30:53;;;;;;;8.20;4.42;;;;;;;22.58;84.85;98656.70;4537733;76;28504;-79
2021/08/27 15:36:55;;;;;;;7.65;4.50;;;;;;;22.60;83.88;98656.39;4531667;76;28433;-80
2021/08/27 15:42:56;;;;;;;8.70;6.85;;;;;;;22.33;85.13;98655.50;4541877;76;28497;-79
2021/08/27 15:49:00;;;;;;;6.75;4.40;;;;;;;21.89;87.15;98665.77;4493335;77;28512;-79
2021/08/27 15:55:04;;;;;;;7.60;4.75;;;;;;;22.66;81.93;98667.44;4506870;76;28527;-80
2021/08/27 16:01:06;;;;;;;6.50;4.95;;;;;;;21.82;90.86;98669.53;4519175;76;28478;-80
2021/08/27 16:07:08;;;;;;;6.95;4.53;;;;;;;21.78;94.12;98667.16;4547594;77;28441;-80
2021/08/27 16:13:09;;;;;;;8.55;4.95;;;;;;;22.67;87.50;98673.95;4516559;76;28451;-81
2021/08/27 16:19:10;;;;;;;6.22;4.85;;;;;;;22.91;80.77;98681.47;4531101;77;28971;-79
2021/08/27 16:25:15;;;;;;;6.20;4.62;;;;;;;22.89;81.10;98674.92;4510398;78;28495;-78
2021/08/27 16:31:17;;;;;;;6.53;4.40;;;;;;;23.00;82.53;98674.05;4506109;77;28489;-78
2021/08/27 16:37:18;;;;;;;9.35;4.75;;;;;;;22.31;89.84;98672.27;4501250;77;28444;-79
2021/08/27 16:43:21;;;;;;;7.25;4.62;;;;;;;22.27;90.88;98677.57;4486106;77;28525;-77
2021/08/27 16:49:23;;;;;;;5.62;4.30;;;;;;;22.12;92.14;98676.08;4492002;77;28564;-77
2021/08/27 16:55:24;;;;;;;6.20;4.33;;;;;;;21.83;96.63;98680.14;4351117;80;28487;-78
2021/08/27 17:01:26;;;;;;;7.20;4.42;;;;;;;22.21;93.78;98680.20;4304794;80;28484;-78
2021/08/27 17:07:27;;;;;;;6.58;4.20;;;;;;;22.95;86.04;98694.20;4498097;77;28550;-77
2021/08/27 17:13:30;;;;;;;7.53;3.90;;;;;;;22.88;84.02;98690.34;4501915;77;28448;-77
2021/08/27 17:19:32;;;;;;;5.75;3.65;;;;;;;22.92;83.64;98693.49;4475668;78;28538;-80
2021/08/27 17:25:33;;;;;;;5.45;4.10;;;;;;;22.52;86.14;98688.13;4531400;78;28467;-79
2021/08/27 17:31:35;;;;;;;5.80;4.30;;;;;;;22.44;87.04;98697.92;4517616;78;28446;-79
2021/08/27 17:37:36;;;;;;;6.87;3.90;;;;;;;22.27;87.91;98704.13;4529225;77;28499;-81
2021/08/27 17:43:39;;;;;;;6.03;3.95;;;;;;;22.33;89.25;98708.89;4517272;77;28474;-81
2021/08/27 17:49:41;;;;;;;5.95;4.05;;;;;;;22.36;89.95;98716.50;4541254;76;28487;-81
2021/08/27 17:55:42;;;;;;;7.80;4.00;;;;;;;22.04;93.01;98718.48;4503566;77;28436;-83
2021/08/27 18:01:44;;;;;;;5.17;4.03;;;;;;;22.00;92.85;98723.20;4545620;78;28560;-83
2021/08/27 18:07:46;;;;;;;5.87;3.80;;;;;;;22.00;92.01;98727.87;4511492;77;28415;-81
2021/08/27 18:13:47;;;;;;;10.68;5.90;;;;;;;21.90;93.67;98735.78;4552817;76;28486;-82
2021/08/27 18:19:49;;;;;;;7.47;4.50;;;;;;;21.76;92.38;98739.97;4563071;77;28510;-81
2021/08/27 18:25:51;;;;;;;6.80;4.33;;;;;;;21.45;98.56;98746.18;4529495;77;28445;-80
2021/08/27 18:31:52;;;;;;;7.28;4.35;;;;;;;21.49;98.42;98751.30;4530008;77;28467;-80
2021/08/27 18:37:54;;;;;;;7.47;4.17;;;;;;;20.60;100.00;98763.89;4488266;78;28502;-79
2021/08/27 18:43:56;;;;;;;6.55;4.65;;;;;;;20.66;100.00;98755.03;4523374;77;28486;-79
2021/08/27 18:49:57;;;;;;;7.22;4.60;;;;;;;20.49;100.00;98753.75;4387458;79;28427;-78
2021/08/27 18:55:58;;;;;;;7.33;4.28;;;;;;;20.50;100.00;98760.83;4376461;80;28491;-78
2021/08/27 19:01:59;;;;;;;6.55;3.77;;;;;;;20.29;100.00;98755.77;4400355;80;28556;-79
2021/08/27 19:08:01;;;;;;;7.85;4.35;;;;;;;20.33;100.00;98759.50;4360953;80;28534;-82
2021/08/27 19:14:04;;;;;;;4.72;3.85;;;;;;;20.48;100.00;98757.02;4382263;79;28503;-80
2021/08/27 19:20:10;;;;;;;5.92;4.10;;;;;;;20.58;100.00;98759.30;4359960;79;28524;-80
2021/08/27 19:26:11;;;;;;;6.53;4.30;;;;;;;20.38;100.00;98755.86;4348220;79;28481;-82
2021/08/27 19:32:12;;;;;;;6.75;3.83;;;;;;;20.18;100.00;98762.54;4376422;79;28508;-82
2021/08/27 19:38:14;;;;;;;7.12;4.05;;;;;;;20.02;100.00;98763.38;4417496;79;28489;-81
2021/08/27 19:44:17;;;;;;;8.20;3.95;;;;;;;19.94;100.00;98762.13;4389018;78;28456;-83
2021/08/27 19:50:19;;;;;;;5.67;4.08;;;;;;;19.93;100.00;98767.34;4514270;76;28505;-82
2021/08/27 19:56:20;;;;;;;7.25;4.60;;;;;;;19.43;100.00;98766.52;4520118;76;28478;-84
2021/08/27 20:02:22;;;;;;;11.08;5.60;;;;;;;19.45;100.00;98775.20;4517485;77;28475;-81
2021/08/27 20:08:23;;;;;;;9.30;5.72;;;;;;;19.39;100.00;98781.28;4520507;77;28483;-81
2021/08/27 20:14:25;;;;;;;10.35;5.97;;;;;;;18.98;100.00;98779.12;4526076;77;28457;-82
2021/08/27 20:20:26;;;;;;;11.10;5.20;;;;;;;19.02;100.00;98778.84;4520408;76;28522;-81
2021/08/27 20:26:28;;;;;;;8.28;5.28;;;;;;;18.92;100.00;98776.48;4512399;77;28512;-81
2021/08/27 20:32:31;;;;;;;13.25;4.62;;;;;;;18.83;100.00;98790.48;4530879;76;28484;-81
2021/08/27 20:38:32;;;;;;;7.47;4.80;;;;;;;19.63;99.83;98792.09;4480080;76;28511;-81
2021/08/27 20:44:34;;;;;;;8.55;4.97;;;;;;;19.30;98.66;98800.77;4518028;77;28484;-80
2021/08/27 20:50:35;;;;;;;9.23;5.00;;;;;;;19.21;98.91;98801.45;4401343;78;28450;-79
2021/08/27 20:56:37;;;;;;;11.35;5.12;;;;;;;19.23;100.00;98803.87;4511756;77;28538;-80
2021/08/27 21:02:38;;;;;;;8.93;5.72;;;;;;;19.24;100.00;98812.30;4506300;77;28456;-79
2021/08/27 21:08:39;;;;;;;7.40;4.83;;;;;;;19.15;100.00;98812.70;4492574;77;28473;-80
2021/08/27 21:14:41;;;;;;;9.13;5.00;;;;;;;19.09;100.00;98816.05;4502716;77;28457;-75
2021/08/27 21:20:43;;;;;;;9.83;4.92;;;;;;;18.73;100.00;98810.47;4497782;77;28441;-75
2021/08/27 21:26:45;;;;;;;7.42;4.40;;;;;;;18.62;100.00;98822.05;4495804;77;28459;-77
2021/08/27 21:32:46;;;;;;;6.62;4.15;;;;;;;18.64;100.00;98823.10;4519031;77;28492;-76
2021/08/27 21:38:47;;;;;;;10.08;6.62;;;;;;;18.43;99.17;98828.80;4502954;77;28443;-75
2021/08/27 21:44:49;;;;;;;7.45;4.50;;;;;;;18.51;99.24;98820.55;4503955;77;28551;-75
2021/08/27 21:50:50;;;;;;;12.68;6.00;;;;;;;18.28;100.00;98824.86;4523115;76;28448;-75
2021/08/27 21:56:52;;;;;;;8.20;4.50;;;;;;;18.44;100.00;98819.53;4495442;76;28530;-75
2021/08/27 22:02:53;;;;;;;9.05;5.30;;;;;;;18.19;98.68;98823.33;4553845;78;28516;-75
2021/08/27 22:08:54;;;;;;;10.63;5.75;;;;;;;18.30;96.65;98822.13;4344389;81;28534;-75
2021/08/27 22:14:55;;;;;;;10.18;6.40;;;;;;;17.88;100.00;98820.85;4381493;81;28502;-75
2021/08/27 22:20:57;;;;;;;8.65;5.15;;;;;;;17.83;100.00;98834.73;4351290;80;28551;-75
2021/08/27 22:26:58;;;;;;;7.40;5.12;;;;;;;17.80;100.00;98831.77;4558136;78;28449;-76
2021/08/27 22:32:59;;;;;;;11.12;6.78;;;;;;;17.67;98.95;98835.97;4362841;80;28533;-76
2021/08/27 22:39:00;;;;;;;8.75;5.55;;;;;;;17.64;99.94;98835.98;4587303;77;28464;-76
2021/08/27 22:45:02;;;;;;;9.28;5.78;;;;;;;17.37;100.00;98837.80;4586900;78;28538;-76
2021/08/27 22:51:04;;;;;;;9.35;5.97;;;;;;;16.07;100.00;98844.97;4591650;77;28534;-75
2021/08/27 22:57:06;;;;;;;7.87;5.53;;;;;;;15.46;100.00;98836.52;4587324;77;28464;-75
2021/08/27 23:03:08;;;;;;;9.13;5.12;;;;;;;15.44;100.00;98839.21;4587417;78;28476;-76
2021/08/27 23:09:11;;;;;;;7.75;5.12;;;;;;;15.33;100.00;98848.67;4587649;78;28647;-76
2021/08/27 23:15:12;;;;;;;9.03;6.28;;;;;;;15.31;100.00;98848.13;4587531;77;28503;-76
2021/08/27 23:21:13;;;;;;;10.15;6.65;;;;;;;15.66;100.00;98846.28;4587655;77;28516;-76
2021/08/27 23:27:14;;;;;;;7.90;5.60;;;;;;;15.50;100.00;98845.45;4587738;78;28552;-75
2021/08/27 23:33:16;;;;;;;9.93;6.15;;;;;;;15.26;100.00;98849.48;4584359;77;28461;-75
2021/08/27 23:39:17;;;;;;;13.32;7.12;;;;;;;15.19;100.00;98851.63;4510826;78;28568;-75
2021/08/27 23:45:18;;;;;;;14.38;7.95;;;;;;;15.24;100.00;98850.27;4537255;77;28490;-76
2021/08/27 23:51:20;;;;;;;11.78;7.58;;;;;;;15.66;100.00;98845.76;4546844;77;28521;-75
2021/08/27 23:57:21;;;;;;;12.75;6.55;;;;;;;15.13;100.00;98842.67;4566261;77;28544;-76
